sensor_id;sensor_type;location;lat;lon;timestamp;pressure;altitude;pressure_sealevel;temperature;humidity
21824;BME280;11074;48.596;9.238;2022-12-07T00:01:23;98276.66;;;6.84;83.39
21824;BME280;11074;48.596;9.238;2022-12-07T00:03:53;98278.72;;;6.82;83.28
21824;BME280;11074;48.596;9.238;2022-12-07T00:06:20;98285.44;;;6.85;82.58
21824;BME280;11074;48.596;9.238;2022-12-07T00:08:46;98282.19;;;6.83;82.68
21824;BME280;11074;48.596;9.238;2022-12-07T00:11:23;98285.31;;;6.80;83.53
21824;BME280;11074;48.596;9.238;2022-12-07T00:13:58;98272.84;;;6.80;83.75
21824;BME280;11074;48.596;9.238;2022-12-07T00:16:29;98274.09;;;6.78;83.09
21824;BME280;11074;48.596;9.238;2022-12-07T00:18:55;98283.31;;;6.75;83.30
21824;BME280;11074;48.596;9.238;2022-12-07T00:21:28;98279.63;;;6.76;83.27
21824;BME280;11074;48.596;9.238;2022-12-07T00:23:56;98284.22;;;6.69;83.71
21824;BME280;11074;48.596;9.238;2022-12-07T00:26:25;98277.88;;;6.70;83.33
21824;BME280;11074;48.596;9.238;2022-12-07T00:28:59;98280.53;;;6.70;83.63
21824;BME280;11074;48.596;9.238;2022-12-07T00:31:29;98279.72;;;6.69;83.73
21824;BME280;11074;48.596;9.238;2022-12-07T00:33:55;98283.50;;;6.62;83.56
21824;BME280;11074;48.596;9.238;2022-12-07T00:36:24;98284.97;;;6.58;83.92
21824;BME280;11074;48.596;9.238;2022-12-07T00:38:49;98278.34;;;6.49;84.23
21824;BME280;11074;48.596;9.238;2022-12-07T00:41:20;98288.75;;;6.50;84.67
21824;BME280;11074;48.596;9.238;2022-12-07T00:43:48;98276.47;;;6.49;84.34
21824;BME280;11074;48.596;9.238;2022-12-07T00:46:16;98276.72;;;6.48;83.91
21824;BME280;11074;48.596;9.238;2022-12-07T00:48:42;98272.13;;;6.55;83.47
21824;BME280;11074;48.596;9.238;2022-12-07T00:51:11;98270.88;;;6.57;84.11
21824;BME280;11074;48.596;9.238;2022-12-07T00:53:38;98278.06;;;6.57;84.07
21824;BME280;11074;48.596;9.238;2022-12-07T00:56:15;98277.81;;;6.58;83.97
21824;BME280;11074;48.596;9.238;2022-12-07T00:58:41;98271.81;;;6.63;83.80
21824;BME280;11074;48.596;9.238;2022-12-07T01:01:09;98266.88;;;6.66;83.65
21824;BME280;11074;48.596;9.238;2022-12-07T01:03:37;98268.84;;;6.71;83.49
21824;BME280;11074;48.596;9.238;2022-12-07T01:06:03;98273.16;;;6.72;82.98
21824;BME280;11074;48.596;9.238;2022-12-07T01:08:29;98272.13;;;6.73;83.59
21824;BME280;11074;48.596;9.238;2022-12-07T01:11:04;98273.38;;;6.70;82.62
21824;BME280;11074;48.596;9.238;2022-12-07T01:13:33;98271.06;;;6.74;83.09
21824;BME280;11074;48.596;9.238;2022-12-07T01:16:02;98274.78;;;6.73;83.75
21824;BME280;11074;48.596;9.238;2022-12-07T01:18:30;98270.13;;;6.68;83.45
21824;BME280;11074;48.596;9.238;2022-12-07T01:21:13;98269.66;;;6.71;83.91
21824;BME280;11074;48.596;9.238;2022-12-07T01:23:40;98268.84;;;6.71;83.38
21824;BME280;11074;48.596;9.238;2022-12-07T01:26:11;98274.53;;;6.75;83.07
21824;BME280;11074;48.596;9.238;2022-12-07T01:28:38;98271.75;;;6.69;83.42
21824;BME280;11074;48.596;9.238;2022-12-07T01:31:12;98271.75;;;6.69;83.92
21824;BME280;11074;48.596;9.238;2022-12-07T01:33:39;98279.13;;;6.67;83.09
21824;BME280;11074;48.596;9.238;2022-12-07T01:38:40;98285.97;;;6.75;83.77
21824;BME280;11074;48.596;9.238;2022-12-07T01:41:07;98293.06;;;6.63;84.06
21824;BME280;11074;48.596;9.238;2022-12-07T01:43:34;98293.16;;;6.56;83.84
21824;BME280;11074;48.596;9.238;2022-12-07T01:46:02;98295.31;;;6.48;83.81
21824;BME280;11074;48.596;9.238;2022-12-07T01:48:42;98292.13;;;6.57;84.68
21824;BME280;11074;48.596;9.238;2022-12-07T01:51:11;98276.19;;;6.57;84.66
21824;BME280;11074;48.596;9.238;2022-12-07T01:53:43;98289.38;;;6.64;84.16
21824;BME280;11074;48.596;9.238;2022-12-07T01:56:17;98276.13;;;6.64;84.47
21824;BME280;11074;48.596;9.238;2022-12-07T01:58:45;98281.78;;;6.67;84.09
21824;BME280;11074;48.596;9.238;2022-12-07T02:01:11;98286.88;;;6.69;83.64
21824;BME280;11074;48.596;9.238;2022-12-07T02:03:43;98288.81;;;6.62;83.42
21824;BME280;11074;48.596;9.238;2022-12-07T02:06:12;98293.06;;;6.63;83.52
21824;BME280;11074;48.596;9.238;2022-12-07T02:08:41;98287.56;;;6.64;84.38
21824;BME280;11074;48.596;9.238;2022-12-07T02:11:08;98284.44;;;6.67;84.56
21824;BME280;11074;48.596;9.238;2022-12-07T02:13:37;98283.63;;;6.67;83.73
21824;BME280;11074;48.596;9.238;2022-12-07T02:16:46;98289.09;;;6.72;83.38
21824;BME280;11074;48.596;9.238;2022-12-07T02:31:23;98292.41;;;6.67;84.76
21824;BME280;11074;48.596;9.238;2022-12-07T02:34:19;98293.22;;;6.68;83.95
21824;BME280;11074;48.596;9.238;2022-12-07T02:36:57;98279.13;;;6.67;84.37
21824;BME280;11074;48.596;9.238;2022-12-07T02:39:44;98282.00;;;6.66;84.73
21824;BME280;11074;48.596;9.238;2022-12-07T02:42:28;98281.56;;;6.69;83.83
21824;BME280;11074;48.596;9.238;2022-12-07T02:44:58;98280.75;;;6.68;84.46
21824;BME280;11074;48.596;9.238;2022-12-07T02:47:27;98283.41;;;6.68;83.72
21824;BME280;11074;48.596;9.238;2022-12-07T02:49:55;98288.81;;;6.62;83.82
21824;BME280;11074;48.596;9.238;2022-12-07T02:52:21;98279.50;;;6.53;84.15
21824;BME280;11074;48.596;9.238;2022-12-07T02:54:46;98283.69;;;6.60;84.22
21824;BME280;11074;48.596;9.238;2022-12-07T02:57:41;98285.25;;;6.68;83.64
21824;BME280;11074;48.596;9.238;2022-12-07T03:00:19;98278.53;;;6.65;84.00
21824;BME280;11074;48.596;9.238;2022-12-07T03:03:09;98271.97;;;6.68;84.29
21824;BME280;11074;48.596;9.238;2022-12-07T03:14:00;98267.78;;;6.60;82.96
21824;BME280;11074;48.596;9.238;2022-12-07T03:16:38;98257.16;;;6.60;83.17
21824;BME280;11074;48.596;9.238;2022-12-07T03:19:18;98261.19;;;6.63;82.93
21824;BME280;11074;48.596;9.238;2022-12-07T03:21:54;98257.53;;;6.64;83.54
21824;BME280;11074;48.596;9.238;2022-12-07T03:24:27;98254.84;;;6.64;83.60
21824;BME280;11074;48.596;9.238;2022-12-07T03:27:09;98262.84;;;6.64;83.35
21824;BME280;11074;48.596;9.238;2022-12-07T03:30:02;98257.97;;;6.61;83.09
21824;BME280;11074;48.596;9.238;2022-12-07T03:32:57;98268.31;;;6.51;83.94
21824;BME280;11074;48.596;9.238;2022-12-07T03:36:01;98263.00;;;6.51;84.65
21824;BME280;11074;48.596;9.238;2022-12-07T03:39:41;98267.28;;;6.52;84.65
21824;BME280;11074;48.596;9.238;2022-12-07T03:42:11;98251.34;;;6.52;84.55
21824;BME280;11074;48.596;9.238;2022-12-07T03:44:38;98261.38;;;6.50;84.06
21824;BME280;11074;48.596;9.238;2022-12-07T03:47:30;98243.84;;;6.49;84.10
21824;BME280;11074;48.596;9.238;2022-12-07T03:50:15;98253.41;;;6.50;84.31
21824;BME280;11074;48.596;9.238;2022-12-07T03:53:03;98259.97;;;6.47;84.56
21824;BME280;11074;48.596;9.238;2022-12-07T03:55:35;98257.31;;;6.47;84.19
21824;BME280;11074;48.596;9.238;2022-12-07T03:58:07;98261.03;;;6.46;84.39
21824;BME280;11074;48.596;9.238;2022-12-07T04:00:35;98261.59;;;6.48;84.36
21824;BME280;11074;48.596;9.238;2022-12-07T04:03:01;98257.69;;;6.51;84.41
21824;BME280;11074;48.596;9.238;2022-12-07T04:05:27;98264.25;;;6.48;84.36
21824;BME280;11074;48.596;9.238;2022-12-07T04:07:53;98261.47;;;6.43;84.06
21824;BME280;11074;48.596;9.238;2022-12-07T04:10:18;98253.13;;;6.40;84.13
21824;BME280;11074;48.596;9.238;2022-12-07T04:12:44;98261.47;;;6.43;83.50
21824;BME280;11074;48.596;9.238;2022-12-07T04:15:11;98251.66;;;6.44;84.59
21824;BME280;11074;48.596;9.238;2022-12-07T04:17:37;98251.28;;;6.40;83.92
21824;BME280;11074;48.596;9.238;2022-12-07T04:20:05;98251.19;;;6.47;84.82
21824;BME280;11074;48.596;9.238;2022-12-07T04:22:31;98248.53;;;6.47;82.94
21824;BME280;11074;48.596;9.238;2022-12-07T04:24:56;98246.78;;;6.41;83.71
21824;BME280;11074;48.596;9.238;2022-12-07T04:27:22;98240.00;;;6.45;84.46
21824;BME280;11074;48.596;9.238;2022-12-07T04:29:48;98238.22;;;6.39;83.47
21824;BME280;11074;48.596;9.238;2022-12-07T04:32:13;98248.25;;;6.37;84.25
21824;BME280;11074;48.596;9.238;2022-12-07T04:34:39;98246.41;;;6.37;84.18
21824;BME280;11074;48.596;9.238;2022-12-07T04:37:05;98245.16;;;6.40;83.71
21824;BME280;11074;48.596;9.238;2022-12-07T04:39:32;98250.34;;;6.35;84.16
21824;BME280;11074;48.596;9.238;2022-12-07T04:42:00;98248.84;;;6.39;84.06
21824;BME280;11074;48.596;9.238;2022-12-07T04:44:27;98240.66;;;6.40;84.38
21824;BME280;11074;48.596;9.238;2022-12-07T04:46:55;98237.44;;;6.38;84.01
21824;BME280;11074;48.596;9.238;2022-12-07T04:49:21;98239.84;;;6.40;83.44
21824;BME280;11074;48.596;9.238;2022-12-07T04:51:47;98241.47;;;6.41;84.37
21824;BME280;11074;48.596;9.238;2022-12-07T04:54:15;98245.97;;;6.40;84.41
21824;BME280;11074;48.596;9.238;2022-12-07T04:56:41;98245.59;;;6.37;84.11
21824;BME280;11074;48.596;9.238;2022-12-07T04:59:07;98242.94;;;6.37;83.75
21824;BME280;11074;48.596;9.238;2022-12-07T05:01:34;98232.44;;;6.30;82.95
21824;BME280;11074;48.596;9.238;2022-12-07T05:04:00;98239.72;;;6.35;83.84
21824;BME280;11074;48.596;9.238;2022-12-07T05:06:26;98238.53;;;6.31;83.45
21824;BME280;11074;48.596;9.238;2022-12-07T05:08:52;98238.31;;;6.32;84.28
21824;BME280;11074;48.596;9.238;2022-12-07T05:11:18;98236.34;;;6.28;83.13
21824;BME280;11074;48.596;9.238;2022-12-07T05:14:12;98234.94;;;6.25;83.18
21824;BME280;11074;48.596;9.238;2022-12-07T05:16:39;98235.72;;;6.26;83.47
21824;BME280;11074;48.596;9.238;2022-12-07T05:19:06;98241.13;;;6.19;82.83
21824;BME280;11074;48.596;9.238;2022-12-07T05:21:32;98241.00;;;5.96;84.03
21824;BME280;11074;48.596;9.238;2022-12-07T05:23:58;98237.22;;;6.03;84.62
21824;BME280;11074;48.596;9.238;2022-12-07T05:26:23;98234.13;;;6.06;84.79
21824;BME280;11074;48.596;9.238;2022-12-07T05:28:57;98238.97;;;6.09;84.27
21824;BME280;11074;48.596;9.238;2022-12-07T05:31:24;98236.13;;;6.11;83.82
21824;BME280;11074;48.596;9.238;2022-12-07T05:33:51;98232.88;;;6.09;82.87
21824;BME280;11074;48.596;9.238;2022-12-07T05:36:17;98223.53;;;6.06;82.73
21824;BME280;11074;48.596;9.238;2022-12-07T05:38:43;98226.63;;;6.03;83.16
21824;BME280;11074;48.596;9.238;2022-12-07T05:41:15;98227.06;;;6.00;82.79
21824;BME280;11074;48.596;9.238;2022-12-07T05:44:01;98229.13;;;5.98;82.55
21824;BME280;11074;48.596;9.238;2022-12-07T05:46:27;98225.28;;;5.94;82.26
21824;BME280;11074;48.596;9.238;2022-12-07T05:48:52;98227.94;;;5.94;82.48
21824;BME280;11074;48.596;9.238;2022-12-07T05:51:18;98226.53;;;5.92;82.03
21824;BME280;11074;48.596;9.238;2022-12-07T05:53:45;98229.56;;;5.95;82.47
21824;BME280;11074;48.596;9.238;2022-12-07T05:56:11;98226.16;;;5.88;82.33
21824;BME280;11074;48.596;9.238;2022-12-07T05:58:37;98208.06;;;5.79;82.08
21824;BME280;11074;48.596;9.238;2022-12-07T06:01:21;98225.38;;;5.81;81.94
21824;BME280;11074;48.596;9.238;2022-12-07T06:03:47;98222.97;;;5.80;80.81
21824;BME280;11074;48.596;9.238;2022-12-07T06:06:12;98230.31;;;5.78;82.09
21824;BME280;11074;48.596;9.238;2022-12-07T06:08:38;98222.50;;;5.65;82.17
21824;BME280;11074;48.596;9.238;2022-12-07T06:11:04;98223.88;;;5.67;82.31
21824;BME280;11074;48.596;9.238;2022-12-07T06:13:48;98236.72;;;5.70;82.40
21824;BME280;11074;48.596;9.238;2022-12-07T06:16:14;98236.13;;;5.68;82.34
21824;BME280;11074;48.596;9.238;2022-12-07T06:18:39;98239.81;;;5.67;82.91
21824;BME280;11074;48.596;9.238;2022-12-07T06:21:05;98243.28;;;5.43;83.09
21824;BME280;11074;48.596;9.238;2022-12-07T06:23:31;98244.25;;;5.48;83.73
21824;BME280;11074;48.596;9.238;2022-12-07T06:25:57;98240.34;;;5.51;83.33
21824;BME280;11074;48.596;9.238;2022-12-07T06:28:22;98248.22;;;5.39;83.44
21824;BME280;11074;48.596;9.238;2022-12-07T06:31:00;98246.00;;;5.12;83.15
21824;BME280;11074;48.596;9.238;2022-12-07T06:33:27;98256.59;;;5.12;84.37
21824;BME280;11074;48.596;9.238;2022-12-07T06:35:53;98252.75;;;5.08;84.82
21824;BME280;11074;48.596;9.238;2022-12-07T06:38:19;98250.47;;;5.11;84.25
21824;BME280;11074;48.596;9.238;2022-12-07T06:40:45;98254.00;;;5.05;84.50
21824;BME280;11074;48.596;9.238;2022-12-07T06:43:10;98259.41;;;5.17;83.69
21824;BME280;11074;48.596;9.238;2022-12-07T06:45:36;98251.69;;;5.15;83.27
21824;BME280;11074;48.596;9.238;2022-12-07T06:48:02;98261.38;;;4.97;83.03
21824;BME280;11074;48.596;9.238;2022-12-07T06:50:27;98256.78;;;4.85;83.56
21824;BME280;11074;48.596;9.238;2022-12-07T06:52:53;98260.66;;;4.83;84.06
21824;BME280;11074;48.596;9.238;2022-12-07T06:55:19;98256.50;;;4.94;83.89
21824;BME280;11074;48.596;9.238;2022-12-07T06:57:44;98252.91;;;5.13;82.76
21824;BME280;11074;48.596;9.238;2022-12-07T07:00:11;98258.22;;;5.13;82.76
21824;BME280;11074;48.596;9.238;2022-12-07T07:02:37;98266.19;;;5.06;82.36
21824;BME280;11074;48.596;9.238;2022-12-07T07:05:03;98276.47;;;4.96;82.99
21824;BME280;11074;48.596;9.238;2022-12-07T07:07:29;98275.94;;;5.12;82.92
21824;BME280;11074;48.596;9.238;2022-12-07T07:09:54;98276.13;;;5.17;82.91
21824;BME280;11074;48.596;9.238;2022-12-07T07:12:20;98267.09;;;5.25;82.42
21824;BME280;11074;48.596;9.238;2022-12-07T07:14:46;98272.78;;;5.28;81.94
21824;BME280;11074;48.596;9.238;2022-12-07T07:17:12;98273.50;;;5.42;82.62
21824;BME280;11074;48.596;9.238;2022-12-07T07:19:38;98265.97;;;5.39;82.28
21824;BME280;11074;48.596;9.238;2022-12-07T07:22:04;98264.50;;;5.43;82.35
21824;BME280;11074;48.596;9.238;2022-12-07T07:24:30;98268.56;;;5.45;83.08
21824;BME280;11074;48.596;9.238;2022-12-07T07:26:56;98262.22;;;5.46;82.56
21824;BME280;11074;48.596;9.238;2022-12-07T07:29:21;98257.75;;;5.47;82.80
21824;BME280;11074;48.596;9.238;2022-12-07T07:31:47;98260.00;;;5.43;81.94
21824;BME280;11074;48.596;9.238;2022-12-07T07:34:13;98260.91;;;5.37;81.79
21824;BME280;11074;48.596;9.238;2022-12-07T07:36:39;98270.72;;;5.30;82.24
21824;BME280;11074;48.596;9.238;2022-12-07T07:39:04;98266.78;;;5.39;82.16
21824;BME280;11074;48.596;9.238;2022-12-07T07:41:31;98274.06;;;5.44;82.10
21824;BME280;11074;48.596;9.238;2022-12-07T07:43:57;98272.44;;;5.43;82.53
21824;BME280;11074;48.596;9.238;2022-12-07T07:46:22;98273.31;;;5.37;82.77
21824;BME280;11074;48.596;9.238;2022-12-07T07:48:48;98276.78;;;5.37;83.03
21824;BME280;11074;48.596;9.238;2022-12-07T07:51:14;98287.13;;;5.45;82.93
21824;BME280;11074;48.596;9.238;2022-12-07T07:53:40;98287.72;;;5.47;82.76
21824;BME280;11074;48.596;9.238;2022-12-07T07:56:05;98292.53;;;5.57;82.10
21824;BME280;11074;48.596;9.238;2022-12-07T07:58:31;98295.34;;;5.62;82.85
21824;BME280;11074;48.596;9.238;2022-12-07T08:00:57;98304.66;;;5.71;83.14
21824;BME280;11074;48.596;9.238;2022-12-07T08:03:22;98308.72;;;5.74;81.60
21824;BME280;11074;48.596;9.238;2022-12-07T08:05:48;98305.03;;;5.75;81.17
21824;BME280;11074;48.596;9.238;2022-12-07T08:08:13;98305.41;;;5.78;80.48
21824;BME280;11074;48.596;9.238;2022-12-07T08:10:39;98309.88;;;5.78;81.15
21824;BME280;11074;48.596;9.238;2022-12-07T08:13:05;98309.84;;;5.84;80.70
21824;BME280;11074;48.596;9.238;2022-12-07T08:15:39;98304.94;;;5.88;81.33
21824;BME280;11074;48.596;9.238;2022-12-07T08:18:05;98312.25;;;5.92;81.92
21824;BME280;11074;48.596;9.238;2022-12-07T08:20:32;98302.88;;;5.90;81.73
21824;BME280;11074;48.596;9.238;2022-12-07T08:22:59;98306.56;;;5.89;81.76
21824;BME280;11074;48.596;9.238;2022-12-07T08:25:25;98313.34;;;5.85;82.40
21824;BME280;11074;48.596;9.238;2022-12-07T08:27:51;98315.13;;;5.84;82.87
21824;BME280;11074;48.596;9.238;2022-12-07T08:30:18;98310.69;;;5.85;81.76
21824;BME280;11074;48.596;9.238;2022-12-07T08:32:48;98307.22;;;5.78;82.41
21824;BME280;11074;48.596;9.238;2022-12-07T08:35:14;98318.66;;;5.78;82.63
21824;BME280;11074;48.596;9.238;2022-12-07T08:37:41;98320.28;;;5.79;82.37
21824;BME280;11074;48.596;9.238;2022-12-07T08:40:10;98317.63;;;5.79;82.51
21824;BME280;11074;48.596;9.238;2022-12-07T08:42:36;98318.66;;;5.78;83.10
21824;BME280;11074;48.596;9.238;2022-12-07T08:45:12;98311.50;;;5.79;82.49
21824;BME280;11074;48.596;9.238;2022-12-07T08:47:59;98312.53;;;5.78;82.38
21824;BME280;11074;48.596;9.238;2022-12-07T08:50:28;98315.56;;;5.81;81.98
21824;BME280;11074;48.596;9.238;2022-12-07T08:52:56;98315.91;;;5.91;81.73
21824;BME280;11074;48.596;9.238;2022-12-07T08:55:23;98313.63;;;5.95;81.25
21824;BME280;11074;48.596;9.238;2022-12-07T08:57:50;98316.69;;;5.98;81.58
21824;BME280;11074;48.596;9.238;2022-12-07T09:00:16;98309.75;;;5.97;81.75
21824;BME280;11074;48.596;9.238;2022-12-07T09:02:44;98307.91;;;5.98;82.39
21824;BME280;11074;48.596;9.238;2022-12-07T09:05:10;98308.78;;;6.10;83.03
21824;BME280;11074;48.596;9.238;2022-12-07T09:07:38;98317.72;;;6.16;82.25
21824;BME280;11074;48.596;9.238;2022-12-07T09:10:05;98309.56;;;6.17;81.33
21824;BME280;11074;48.596;9.238;2022-12-07T09:12:30;98314.41;;;6.20;82.38
21824;BME280;11074;48.596;9.238;2022-12-07T09:14:56;98309.91;;;6.21;82.32
21824;BME280;11074;48.596;9.238;2022-12-07T09:17:22;98308.72;;;6.17;82.54
21824;BME280;11074;48.596;9.238;2022-12-07T09:19:48;98308.31;;;6.20;81.59
21824;BME280;11074;48.596;9.238;2022-12-07T09:22:13;98316.91;;;6.15;81.70
21824;BME280;11074;48.596;9.238;2022-12-07T09:24:39;98322.16;;;6.22;81.75
21824;BME280;11074;48.596;9.238;2022-12-07T09:27:05;98311.00;;;6.13;81.96
21824;BME280;11074;48.596;9.238;2022-12-07T09:29:31;98312.56;;;6.21;81.71
21824;BME280;11074;48.596;9.238;2022-12-07T09:31:56;98310.94;;;6.20;82.19
21824;BME280;11074;48.596;9.238;2022-12-07T09:34:22;98322.75;;;6.24;82.49
21824;BME280;11074;48.596;9.238;2022-12-07T09:36:48;98308.44;;;6.25;82.37
21824;BME280;11074;48.596;9.238;2022-12-07T09:39:13;98314.88;;;6.35;82.02
21824;BME280;11074;48.596;9.238;2022-12-07T09:41:44;98304.97;;;6.42;81.23
21824;BME280;11074;48.596;9.238;2022-12-07T09:44:14;98294.16;;;6.44;81.60
21824;BME280;11074;48.596;9.238;2022-12-07T09:46:45;98303.13;;;6.43;81.29
21824;BME280;11074;48.596;9.238;2022-12-07T09:49:21;98293.31;;;6.43;80.71
21824;BME280;11074;48.596;9.238;2022-12-07T09:51:48;98289.41;;;6.46;80.94
21824;BME280;11074;48.596;9.238;2022-12-07T09:54:24;98282.16;;;6.53;80.54
21824;BME280;11074;48.596;9.238;2022-12-07T09:56:50;98280.34;;;6.53;80.28
21824;BME280;11074;48.596;9.238;2022-12-07T09:59:19;98278.06;;;6.57;80.41
21824;BME280;11074;48.596;9.238;2022-12-07T10:01:48;98273.06;;;6.60;79.82
21824;BME280;11074;48.596;9.238;2022-12-07T10:04:23;98281.66;;;6.62;79.50
21824;BME280;11074;48.596;9.238;2022-12-07T10:06:50;98271.81;;;6.63;78.92
21824;BME280;11074;48.596;9.238;2022-12-07T10:09:21;98272.63;;;6.63;77.39
21824;BME280;11074;48.596;9.238;2022-12-07T10:12:10;98271.25;;;6.61;77.58
21824;BME280;11074;48.596;9.238;2022-12-07T10:15:00;98269.16;;;6.63;76.89
21824;BME280;11074;48.596;9.238;2022-12-07T10:17:40;98264.09;;;6.61;76.09
21824;BME280;11074;48.596;9.238;2022-12-07T10:20:25;98265.03;;;6.67;76.07
21824;BME280;11074;48.596;9.238;2022-12-07T10:23:00;98261.88;;;6.58;74.40
21824;BME280;11074;48.596;9.238;2022-12-07T10:25:35;98260.41;;;6.62;75.02
21824;BME280;11074;48.596;9.238;2022-12-07T10:28:10;98259.03;;;6.71;76.09
21824;BME280;11074;48.596;9.238;2022-12-07T10:30:55;98255.72;;;6.76;76.24
21824;BME280;11074;48.596;9.238;2022-12-07T10:33:38;98258.38;;;6.76;74.44
21824;BME280;11074;48.596;9.238;2022-12-07T10:36:26;98249.13;;;6.79;74.69
21824;BME280;11074;48.596;9.238;2022-12-07T10:39:11;98252.97;;;6.83;73.23
21824;BME280;11074;48.596;9.238;2022-12-07T10:44:27;98250.91;;;6.85;72.60
21824;BME280;11074;48.596;9.238;2022-12-07T10:53:03;98243.97;;;6.84;73.13
21824;BME280;11074;48.596;9.238;2022-12-07T11:02:15;98231.75;;;6.94;73.14
21824;BME280;11074;48.596;9.238;2022-12-07T11:05:20;98224.78;;;6.82;72.81
21824;BME280;11074;48.596;9.238;2022-12-07T11:11:09;98219.94;;;6.90;72.08
21824;BME280;11074;48.596;9.238;2022-12-07T11:22:02;98209.00;;;6.98;71.48
21824;BME280;11074;48.596;9.238;2022-12-07T11:24:40;98207.97;;;6.99;71.78
21824;BME280;11074;48.596;9.238;2022-12-07T11:30:28;98205.44;;;7.16;72.27
21824;BME280;11074;48.596;9.238;2022-12-07T11:33:15;98204.78;;;7.20;72.32
21824;BME280;11074;48.596;9.238;2022-12-07T11:38:15;98193.69;;;7.23;72.19
21824;BME280;11074;48.596;9.238;2022-12-07T11:40:48;98188.13;;;7.25;71.34
21824;BME280;11074;48.596;9.238;2022-12-07T11:43:32;98185.00;;;7.28;71.73
21824;BME280;11074;48.596;9.238;2022-12-07T11:46:04;98187.88;;;7.26;71.77
21824;BME280;11074;48.596;9.238;2022-12-07T11:48:47;98180.38;;;7.12;70.44
21824;BME280;11074;48.596;9.238;2022-12-07T11:51:20;98177.81;;;7.17;71.65
21824;BME280;11074;48.596;9.238;2022-12-07T11:57:09;98172.53;;;7.28;72.03
21824;BME280;11074;48.596;9.238;2022-12-07T11:59:57;98165.94;;;7.31;71.49
21824;BME280;11074;48.596;9.238;2022-12-07T12:02:36;98168.13;;;7.34;70.59
21824;BME280;11074;48.596;9.238;2022-12-07T12:05:16;98160.28;;;7.39;71.91
21824;BME280;11074;48.596;9.238;2022-12-07T12:07:44;98158.06;;;7.36;71.34
21824;BME280;11074;48.596;9.238;2022-12-07T12:10:30;98152.50;;;7.38;71.17
21824;BME280;11074;48.596;9.238;2022-12-07T12:13:19;98156.91;;;7.44;70.73
21824;BME280;11074;48.596;9.238;2022-12-07T12:21:40;98151.59;;;7.32;70.31
21824;BME280;11074;48.596;9.238;2022-12-07T12:24:31;98143.97;;;7.24;70.33
21824;BME280;11074;48.596;9.238;2022-12-07T12:27:14;98147.78;;;7.28;71.50
21824;BME280;11074;48.596;9.238;2022-12-07T12:29:42;98147.78;;;7.28;71.64
21824;BME280;11074;48.596;9.238;2022-12-07T12:32:33;98138.06;;;7.33;72.12
21824;BME280;11074;48.596;9.238;2022-12-07T12:47:00;98133.34;;;7.36;72.14
21824;BME280;11074;48.596;9.238;2022-12-07T12:49:42;98136.91;;;7.29;70.71
21824;BME280;11074;48.596;9.238;2022-12-07T12:57:33;98130.22;;;7.39;72.50
21824;BME280;11074;48.596;9.238;2022-12-07T13:00:14;98131.34;;;7.43;72.58
21824;BME280;11074;48.596;9.238;2022-12-07T13:02:55;98133.34;;;7.36;72.12
21824;BME280;11074;48.596;9.238;2022-12-07T13:05:28;98124.06;;;7.38;72.04
21824;BME280;11074;48.596;9.238;2022-12-07T13:07:59;98121.22;;;7.40;72.25
21824;BME280;11074;48.596;9.238;2022-12-07T13:10:35;98113.69;;;7.37;72.20
21824;BME280;11074;48.596;9.238;2022-12-07T13:26:39;98097.69;;;7.48;71.86
21824;BME280;11074;48.596;9.238;2022-12-07T13:29:20;98088.44;;;7.51;73.29
21824;BME280;11074;48.596;9.238;2022-12-07T13:31:56;98100.72;;;7.52;73.45
21824;BME280;11074;48.596;9.238;2022-12-07T13:34:34;98097.94;;;7.47;73.19
21824;BME280;11074;48.596;9.238;2022-12-07T13:39:33;98088.94;;;7.48;73.29
21824;BME280;11074;48.596;9.238;2022-12-07T13:42:18;98085.22;;;7.49;72.24
21824;BME280;11074;48.596;9.238;2022-12-07T13:44:45;98079.09;;;7.48;72.70
21824;BME280;11074;48.596;9.238;2022-12-07T13:47:18;98075.75;;;7.53;73.53
21824;BME280;11074;48.596;9.238;2022-12-07T13:49:56;98080.59;;;7.56;73.52
21824;BME280;11074;48.596;9.238;2022-12-07T13:52:28;98075.84;;;7.58;72.92
21824;BME280;11074;48.596;9.238;2022-12-07T13:55:01;98076.88;;;7.57;73.03
21824;BME280;11074;48.596;9.238;2022-12-07T13:57:30;98085.41;;;7.59;72.05
21824;BME280;11074;48.596;9.238;2022-12-07T13:59:58;98074.56;;;7.60;72.59
21824;BME280;11074;48.596;9.238;2022-12-07T14:02:27;98084.13;;;7.61;72.89
21824;BME280;11074;48.596;9.238;2022-12-07T14:08:02;98082.53;;;7.60;74.15
21824;BME280;11074;48.596;9.238;2022-12-07T14:13:56;98078.16;;;7.54;73.64
21824;BME280;11074;48.596;9.238;2022-12-07T14:16:37;98081.84;;;7.53;73.84
21824;BME280;11074;48.596;9.238;2022-12-07T14:19:20;98083.38;;;7.49;72.73
21824;BME280;11074;48.596;9.238;2022-12-07T14:22:19;98076.66;;;7.47;73.09
21824;BME280;11074;48.596;9.238;2022-12-07T14:24:45;98083.97;;;7.40;73.58
21824;BME280;11074;48.596;9.238;2022-12-07T14:27:23;98069.63;;;7.41;74.93
21824;BME280;11074;48.596;9.238;2022-12-07T14:29:51;98067.78;;;7.41;74.79
21824;BME280;11074;48.596;9.238;2022-12-07T14:32:27;98083.84;;;7.46;74.86
21824;BME280;11074;48.596;9.238;2022-12-07T14:35:12;98072.28;;;7.41;75.09
21824;BME280;11074;48.596;9.238;2022-12-07T14:37:41;98074.47;;;7.44;74.90
21824;BME280;11074;48.596;9.238;2022-12-07T14:40:12;98079.09;;;7.48;74.72
21824;BME280;11074;48.596;9.238;2022-12-07T14:42:39;98080.59;;;7.44;74.22
21824;BME280;11074;48.596;9.238;2022-12-07T14:45:20;98085.56;;;7.41;74.65
21824;BME280;11074;48.596;9.238;2022-12-07T14:47:47;98082.81;;;7.36;74.37
21824;BME280;11074;48.596;9.238;2022-12-07T14:50:17;98085.72;;;7.34;73.87
21824;BME280;11074;48.596;9.238;2022-12-07T14:53:28;98088.38;;;7.34;74.37
21824;BME280;11074;48.596;9.238;2022-12-07T14:55:51;98079.47;;;7.28;74.24
21824;BME280;11074;48.596;9.238;2022-12-07T14:58:18;98078.09;;;7.14;74.32
21824;BME280;11074;48.596;9.238;2022-12-07T15:00:44;98081.78;;;7.13;74.95
21824;BME280;11074;48.596;9.238;2022-12-07T15:03:10;98086.53;;;7.23;75.25
21824;BME280;11074;48.596;9.238;2022-12-07T15:05:37;98088.63;;;7.21;74.28
21824;BME280;11074;48.596;9.238;2022-12-07T15:08:03;98086.31;;;7.13;74.32
21824;BME280;11074;48.596;9.238;2022-12-07T15:10:33;98084.69;;;7.12;74.69
21824;BME280;11074;48.596;9.238;2022-12-07T15:13:00;98087.78;;;7.09;74.46
21824;BME280;11074;48.596;9.238;2022-12-07T15:15:45;98087.44;;;7.05;74.79
21824;BME280;11074;48.596;9.238;2022-12-07T15:18:11;98087.22;;;7.07;74.96